Adams, Nebraska
Current Conditions -  °F | °C
As of 6:55 PM on Saturday 25 Oct 2014 (Local Time) from KBIE Reporting Station
Clear Clear  
Wind Chill: 20°   Ceiling: Unl
Heat Index: 20°   Visibility: 10mi
Dew Point:   Wind: 3mph
Humidity: 49%   Direction: 70°ENE
Pressure: 30.01"   Gusts: NA
Location:  40.46°N, 96.51°W
Report Text: KBIE 252355Z AUTO 07003KT 10SM CLR 20/09 A3001 RMK AO2 T01950085 10246 20195
Loading
Personal Weather Stations






























Interactive Weather Map
Tropical Storm Tracking
New forecast layout! Learn more

10-Day Weather Forecast

Advertisements
Track Severe Weather on mobile